sensor_id;sensor_type;location;lat;lon;timestamp;P1;durP1;ratioP1;P2;durP2;ratioP2
77123;SDS011;66079;47.646;19.130;2023-02-18T00:02:49;2.83;;;1.60;;
77123;SDS011;66079;47.646;19.130;2023-02-18T00:05:53;3.10;;;1.83;;
77123;SDS011;66079;47.646;19.130;2023-02-18T00:08:57;3.03;;;1.47;;
77123;SDS011;66079;47.646;19.130;2023-02-18T00:12:03;3.83;;;1.77;;
77123;SDS011;66079;47.646;19.130;2023-02-18T00:15:06;2.58;;;1.67;;
77123;SDS011;66079;47.646;19.130;2023-02-18T00:18:10;2.30;;;1.33;;
77123;SDS011;66079;47.646;19.130;2023-02-18T00:21:14;2.97;;;1.67;;
77123;SDS011;66079;47.646;19.130;2023-02-18T00:24:17;2.97;;;1.40;;
77123;SDS011;66079;47.646;19.130;2023-02-18T00:27:20;2.90;;;1.20;;
77123;SDS011;66079;47.646;19.130;2023-02-18T00:30:22;3.40;;;1.70;;
77123;SDS011;66079;47.646;19.130;2023-02-18T00:33:25;3.10;;;1.23;;
77123;SDS011;66079;47.646;19.130;2023-02-18T00:36:29;1.63;;;1.10;;
77123;SDS011;66079;47.646;19.130;2023-02-18T00:39:33;2.47;;;1.30;;
77123;SDS011;66079;47.646;19.130;2023-02-18T00:42:36;1.63;;;1.07;;
77123;SDS011;66079;47.646;19.130;2023-02-18T00:45:39;2.40;;;1.20;;
77123;SDS011;66079;47.646;19.130;2023-02-18T00:48:41;2.17;;;1.10;;
77123;SDS011;66079;47.646;19.130;2023-02-18T00:51:44;4.18;;;1.23;;
77123;SDS011;66079;47.646;19.130;2023-02-18T00:54:47;1.80;;;1.03;;
77123;SDS011;66079;47.646;19.130;2023-02-18T00:57:50;1.50;;;1.10;;
77123;SDS011;66079;47.646;19.130;2023-02-18T01:00:53;1.20;;;0.90;;
77123;SDS011;66079;47.646;19.130;2023-02-18T01:03:56;3.15;;;0.90;;
77123;SDS011;66079;47.646;19.130;2023-02-18T01:07:00;2.75;;;1.13;;
77123;SDS011;66079;47.646;19.130;2023-02-18T01:10:03;1.30;;;0.90;;
77123;SDS011;66079;47.646;19.130;2023-02-18T01:13:07;1.50;;;0.93;;
77123;SDS011;66079;47.646;19.130;2023-02-18T01:16:10;1.38;;;0.93;;
77123;SDS011;66079;47.646;19.130;2023-02-18T01:19:13;2.22;;;1.10;;
77123;SDS011;66079;47.646;19.130;2023-02-18T01:22:16;0.88;;;0.70;;
77123;SDS011;66079;47.646;19.130;2023-02-18T01:25:19;1.30;;;0.80;;
77123;SDS011;66079;47.646;19.130;2023-02-18T01:28:22;2.00;;;0.80;;
77123;SDS011;66079;47.646;19.130;2023-02-18T01:31:27;4.22;;;0.90;;
77123;SDS011;66079;47.646;19.130;2023-02-18T01:34:33;1.27;;;0.85;;
77123;SDS011;66079;47.646;19.130;2023-02-18T01:37:36;2.17;;;0.80;;
77123;SDS011;66079;47.646;19.130;2023-02-18T01:40:48;2.70;;;0.90;;
77123;SDS011;66079;47.646;19.130;2023-02-18T01:47:22;2.85;;;0.82;;
77123;SDS011;66079;47.646;19.130;2023-02-18T01:50:26;0.73;;;0.50;;
77123;SDS011;66079;47.646;19.130;2023-02-18T01:53:35;1.23;;;1.13;;
77123;SDS011;66079;47.646;19.130;2023-02-18T01:56:47;2.57;;;1.00;;
77123;SDS011;66079;47.646;19.130;2023-02-18T01:59:55;3.43;;;0.93;;
77123;SDS011;66079;47.646;19.130;2023-02-18T02:02:59;1.17;;;0.70;;
77123;SDS011;66079;47.646;19.130;2023-02-18T02:06:05;1.00;;;0.80;;
77123;SDS011;66079;47.646;19.130;2023-02-18T02:09:15;2.03;;;0.80;;
77123;SDS011;66079;47.646;19.130;2023-02-18T02:16:08;1.83;;;0.70;;
77123;SDS011;66079;47.646;19.130;2023-02-18T02:19:28;0.77;;;0.60;;
77123;SDS011;66079;47.646;19.130;2023-02-18T02:36:50;0.80;;;0.60;;
77123;SDS011;66079;47.646;19.130;2023-02-18T02:43:21;0.85;;;0.68;;
77123;SDS011;66079;47.646;19.130;2023-02-18T02:46:36;1.73;;;0.70;;
77123;SDS011;66079;47.646;19.130;2023-02-18T02:49:48;1.40;;;0.80;;
77123;SDS011;66079;47.646;19.130;2023-02-18T02:53:01;1.45;;;0.70;;
77123;SDS011;66079;47.646;19.130;2023-02-18T02:56:15;1.08;;;0.80;;
77123;SDS011;66079;47.646;19.130;2023-02-18T02:59:28;1.35;;;0.70;;
77123;SDS011;66079;47.646;19.130;2023-02-18T03:12:35;1.77;;;0.60;;
77123;SDS011;66079;47.646;19.130;2023-02-18T03:16:04;1.13;;;0.80;;
77123;SDS011;66079;47.646;19.130;2023-02-18T03:19:32;0.93;;;0.70;;
77123;SDS011;66079;47.646;19.130;2023-02-18T03:22:38;1.53;;;0.50;;
77123;SDS011;66079;47.646;19.130;2023-02-18T03:25:45;1.33;;;0.80;;
77123;SDS011;66079;47.646;19.130;2023-02-18T03:28:50;0.70;;;0.60;;
77123;SDS011;66079;47.646;19.130;2023-02-18T03:32:00;0.80;;;0.60;;
77123;SDS011;66079;47.646;19.130;2023-02-18T03:35:08;0.97;;;0.70;;
77123;SDS011;66079;47.646;19.130;2023-02-18T03:38:16;2.07;;;0.60;;
77123;SDS011;66079;47.646;19.130;2023-02-18T03:41:25;0.70;;;0.50;;
77123;SDS011;66079;47.646;19.130;2023-02-18T03:44:29;1.08;;;0.60;;
77123;SDS011;66079;47.646;19.130;2023-02-18T03:47:34;1.45;;;0.80;;
77123;SDS011;66079;47.646;19.130;2023-02-18T03:50:37;1.53;;;0.70;;
77123;SDS011;66079;47.646;19.130;2023-02-18T03:53:39;1.70;;;0.70;;
77123;SDS011;66079;47.646;19.130;2023-02-18T03:56:42;0.70;;;0.50;;
77123;SDS011;66079;47.646;19.130;2023-02-18T03:59:45;0.50;;;0.50;;
77123;SDS011;66079;47.646;19.130;2023-02-18T04:02:49;0.73;;;0.60;;
77123;SDS011;66079;47.646;19.130;2023-02-18T04:05:51;1.33;;;0.80;;
77123;SDS011;66079;47.646;19.130;2023-02-18T04:08:54;0.90;;;0.70;;
77123;SDS011;66079;47.646;19.130;2023-02-18T04:11:57;0.85;;;0.60;;
77123;SDS011;66079;47.646;19.130;2023-02-18T04:15:01;1.05;;;0.70;;
77123;SDS011;66079;47.646;19.130;2023-02-18T04:18:04;2.05;;;0.70;;
77123;SDS011;66079;47.646;19.130;2023-02-18T04:21:06;0.87;;;0.60;;
77123;SDS011;66079;47.646;19.130;2023-02-18T04:24:09;3.27;;;0.83;;
77123;SDS011;66079;47.646;19.130;2023-02-18T04:27:12;0.95;;;0.57;;
77123;SDS011;66079;47.646;19.130;2023-02-18T04:30:15;0.80;;;0.60;;
77123;SDS011;66079;47.646;19.130;2023-02-18T04:33:20;1.27;;;0.73;;
77123;SDS011;66079;47.646;19.130;2023-02-18T04:36:23;1.87;;;0.70;;
77123;SDS011;66079;47.646;19.130;2023-02-18T04:39:26;1.13;;;0.53;;
77123;SDS011;66079;47.646;19.130;2023-02-18T04:42:29;1.55;;;0.93;;
77123;SDS011;66079;47.646;19.130;2023-02-18T04:45:31;1.48;;;0.70;;
77123;SDS011;66079;47.646;19.130;2023-02-18T04:48:36;1.17;;;0.73;;
77123;SDS011;66079;47.646;19.130;2023-02-18T04:51:39;2.63;;;0.70;;
77123;SDS011;66079;47.646;19.130;2023-02-18T04:54:42;1.97;;;0.80;;
77123;SDS011;66079;47.646;19.130;2023-02-18T04:57:45;1.35;;;0.65;;
77123;SDS011;66079;47.646;19.130;2023-02-18T05:00:48;0.88;;;0.68;;
77123;SDS011;66079;47.646;19.130;2023-02-18T05:03:51;1.35;;;0.95;;
77123;SDS011;66079;47.646;19.130;2023-02-18T05:06:55;0.90;;;0.70;;
77123;SDS011;66079;47.646;19.130;2023-02-18T05:09:57;0.63;;;0.63;;
77123;SDS011;66079;47.646;19.130;2023-02-18T05:13:00;0.68;;;0.60;;
77123;SDS011;66079;47.646;19.130;2023-02-18T05:16:03;1.23;;;0.50;;
77123;SDS011;66079;47.646;19.130;2023-02-18T05:19:06;1.20;;;0.70;;
77123;SDS011;66079;47.646;19.130;2023-02-18T05:22:08;0.97;;;0.70;;
77123;SDS011;66079;47.646;19.130;2023-02-18T05:25:11;1.73;;;0.60;;
77123;SDS011;66079;47.646;19.130;2023-02-18T05:28:13;0.70;;;0.50;;
77123;SDS011;66079;47.646;19.130;2023-02-18T05:31:16;1.58;;;0.40;;
77123;SDS011;66079;47.646;19.130;2023-02-18T05:34:19;0.60;;;0.40;;
77123;SDS011;66079;47.646;19.130;2023-02-18T05:37:22;0.70;;;0.40;;
77123;SDS011;66079;47.646;19.130;2023-02-18T05:40:26;0.70;;;0.50;;
77123;SDS011;66079;47.646;19.130;2023-02-18T05:43:31;0.50;;;0.50;;
77123;SDS011;66079;47.646;19.130;2023-02-18T05:46:54;0.68;;;0.40;;
77123;SDS011;66079;47.646;19.130;2023-02-18T05:50:07;0.65;;;0.50;;
77123;SDS011;66079;47.646;19.130;2023-02-18T05:53:11;2.37;;;0.90;;
77123;SDS011;66079;47.646;19.130;2023-02-18T05:56:14;0.80;;;0.60;;
77123;SDS011;66079;47.646;19.130;2023-02-18T05:59:17;1.95;;;0.80;;
77123;SDS011;66079;47.646;19.130;2023-02-18T06:02:21;1.30;;;0.70;;
77123;SDS011;66079;47.646;19.130;2023-02-18T06:05:24;0.90;;;0.73;;
77123;SDS011;66079;47.646;19.130;2023-02-18T06:08:27;1.77;;;0.80;;
77123;SDS011;66079;47.646;19.130;2023-02-18T06:11:30;1.07;;;0.80;;
77123;SDS011;66079;47.646;19.130;2023-02-18T06:14:33;0.77;;;0.70;;
77123;SDS011;66079;47.646;19.130;2023-02-18T06:17:36;0.93;;;0.70;;
77123;SDS011;66079;47.646;19.130;2023-02-18T06:20:38;0.70;;;0.57;;
77123;SDS011;66079;47.646;19.130;2023-02-18T06:23:41;1.13;;;0.70;;
77123;SDS011;66079;47.646;19.130;2023-02-18T06:26:44;0.90;;;0.70;;
77123;SDS011;66079;47.646;19.130;2023-02-18T06:29:48;0.82;;;0.65;;
77123;SDS011;66079;47.646;19.130;2023-02-18T06:32:52;0.60;;;0.60;;
77123;SDS011;66079;47.646;19.130;2023-02-18T06:35:55;0.73;;;0.60;;
77123;SDS011;66079;47.646;19.130;2023-02-18T06:39:01;0.80;;;0.60;;
77123;SDS011;66079;47.646;19.130;2023-02-18T06:42:07;0.83;;;0.60;;
77123;SDS011;66079;47.646;19.130;2023-02-18T06:45:09;1.52;;;0.50;;
77123;SDS011;66079;47.646;19.130;2023-02-18T06:48:12;1.33;;;0.70;;
77123;SDS011;66079;47.646;19.130;2023-02-18T06:51:15;1.00;;;0.55;;
77123;SDS011;66079;47.646;19.130;2023-02-18T06:54:20;0.93;;;0.53;;
77123;SDS011;66079;47.646;19.130;2023-02-18T06:57:22;1.10;;;1.00;;
77123;SDS011;66079;47.646;19.130;2023-02-18T07:00:25;0.73;;;0.55;;
77123;SDS011;66079;47.646;19.130;2023-02-18T07:03:28;0.57;;;0.50;;
77123;SDS011;66079;47.646;19.130;2023-02-18T07:06:30;1.05;;;0.55;;
77123;SDS011;66079;47.646;19.130;2023-02-18T07:09:33;1.10;;;0.40;;
77123;SDS011;66079;47.646;19.130;2023-02-18T07:12:36;0.63;;;0.40;;
77123;SDS011;66079;47.646;19.130;2023-02-18T07:15:38;0.70;;;0.30;;
77123;SDS011;66079;47.646;19.130;2023-02-18T07:18:41;0.40;;;0.40;;
77123;SDS011;66079;47.646;19.130;2023-02-18T07:21:45;1.27;;;0.50;;
77123;SDS011;66079;47.646;19.130;2023-02-18T07:24:51;1.10;;;0.47;;
77123;SDS011;66079;47.646;19.130;2023-02-18T07:27:55;1.23;;;0.60;;
77123;SDS011;66079;47.646;19.130;2023-02-18T07:30:58;0.60;;;0.47;;
77123;SDS011;66079;47.646;19.130;2023-02-18T07:34:01;0.40;;;0.40;;
77123;SDS011;66079;47.646;19.130;2023-02-18T07:37:06;0.65;;;0.47;;
77123;SDS011;66079;47.646;19.130;2023-02-18T07:40:12;0.67;;;0.60;;
77123;SDS011;66079;47.646;19.130;2023-02-18T07:43:19;1.20;;;0.60;;
77123;SDS011;66079;47.646;19.130;2023-02-18T07:46:21;0.73;;;0.60;;
77123;SDS011;66079;47.646;19.130;2023-02-18T07:49:24;1.05;;;0.60;;
77123;SDS011;66079;47.646;19.130;2023-02-18T07:52:27;0.80;;;0.70;;
77123;SDS011;66079;47.646;19.130;2023-02-18T07:55:30;1.27;;;0.80;;
77123;SDS011;66079;47.646;19.130;2023-02-18T07:58:52;0.73;;;0.53;;
77123;SDS011;66079;47.646;19.130;2023-02-18T08:01:56;1.00;;;0.80;;
77123;SDS011;66079;47.646;19.130;2023-02-18T08:04:59;1.35;;;0.90;;
77123;SDS011;66079;47.646;19.130;2023-02-18T08:08:01;1.17;;;0.65;;
77123;SDS011;66079;47.646;19.130;2023-02-18T08:11:04;0.73;;;0.60;;
77123;SDS011;66079;47.646;19.130;2023-02-18T08:14:20;1.00;;;0.70;;
77123;SDS011;66079;47.646;19.130;2023-02-18T08:17:23;2.42;;;0.57;;
77123;SDS011;66079;47.646;19.130;2023-02-18T08:20:26;4.65;;;0.55;;
77123;SDS011;66079;47.646;19.130;2023-02-18T08:23:31;1.58;;;0.40;;
77123;SDS011;66079;47.646;19.130;2023-02-18T08:26:34;5.23;;;0.63;;
77123;SDS011;66079;47.646;19.130;2023-02-18T08:29:37;1.77;;;0.70;;
77123;SDS011;66079;47.646;19.130;2023-02-18T08:32:39;0.60;;;0.30;;
77123;SDS011;66079;47.646;19.130;2023-02-18T08:35:43;1.25;;;0.35;;
77123;SDS011;66079;47.646;19.130;2023-02-18T08:38:50;1.23;;;0.52;;
77123;SDS011;66079;47.646;19.130;2023-02-18T08:41:55;2.43;;;0.57;;
77123;SDS011;66079;47.646;19.130;2023-02-18T08:44:58;2.20;;;0.60;;
77123;SDS011;66079;47.646;19.130;2023-02-18T08:48:01;0.90;;;0.40;;
77123;SDS011;66079;47.646;19.130;2023-02-18T08:51:21;0.57;;;0.38;;
77123;SDS011;66079;47.646;19.130;2023-02-18T08:54:24;0.55;;;0.45;;
77123;SDS011;66079;47.646;19.130;2023-02-18T08:57:28;0.93;;;0.40;;
77123;SDS011;66079;47.646;19.130;2023-02-18T09:00:30;0.60;;;0.40;;
77123;SDS011;66079;47.646;19.130;2023-02-18T09:03:34;1.38;;;0.40;;
77123;SDS011;66079;47.646;19.130;2023-02-18T09:06:37;1.75;;;0.30;;
77123;SDS011;66079;47.646;19.130;2023-02-18T09:09:41;1.13;;;0.43;;
77123;SDS011;66079;47.646;19.130;2023-02-18T09:12:44;0.50;;;0.50;;
77123;SDS011;66079;47.646;19.130;2023-02-18T09:16:00;0.40;;;0.40;;
77123;SDS011;66079;47.646;19.130;2023-02-18T09:19:05;0.73;;;0.50;;
77123;SDS011;66079;47.646;19.130;2023-02-18T09:22:08;1.17;;;0.50;;
77123;SDS011;66079;47.646;19.130;2023-02-18T09:25:14;0.70;;;0.40;;
77123;SDS011;66079;47.646;19.130;2023-02-18T09:28:16;1.37;;;0.80;;
77123;SDS011;66079;47.646;19.130;2023-02-18T09:31:22;0.43;;;0.30;;
77123;SDS011;66079;47.646;19.130;2023-02-18T09:34:27;0.55;;;0.55;;
77123;SDS011;66079;47.646;19.130;2023-02-18T09:37:30;0.40;;;0.30;;
77123;SDS011;66079;47.646;19.130;2023-02-18T09:40:33;0.30;;;0.30;;
77123;SDS011;66079;47.646;19.130;2023-02-18T09:43:42;1.07;;;0.30;;
77123;SDS011;66079;47.646;19.130;2023-02-18T09:46:58;0.60;;;0.40;;
77123;SDS011;66079;47.646;19.130;2023-02-18T09:50:27;0.73;;;0.40;;
77123;SDS011;66079;47.646;19.130;2023-02-18T09:53:30;2.40;;;0.47;;
77123;SDS011;66079;47.646;19.130;2023-02-18T09:56:34;1.77;;;0.60;;
77123;SDS011;66079;47.646;19.130;2023-02-18T09:59:41;1.23;;;0.50;;
77123;SDS011;66079;47.646;19.130;2023-02-18T10:06:05;0.75;;;0.35;;
77123;SDS011;66079;47.646;19.130;2023-02-18T10:09:20;0.80;;;0.60;;
77123;SDS011;66079;47.646;19.130;2023-02-18T10:12:29;2.25;;;0.40;;
77123;SDS011;66079;47.646;19.130;2023-02-18T10:15:36;0.70;;;0.40;;
77123;SDS011;66079;47.646;19.130;2023-02-18T10:18:47;0.80;;;0.30;;
77123;SDS011;66079;47.646;19.130;2023-02-18T10:21:51;0.43;;;0.35;;
77123;SDS011;66079;47.646;19.130;2023-02-18T10:25:01;0.70;;;0.30;;
77123;SDS011;66079;47.646;19.130;2023-02-18T10:28:09;0.52;;;0.40;;
77123;SDS011;66079;47.646;19.130;2023-02-18T10:31:17;0.43;;;0.30;;
77123;SDS011;66079;47.646;19.130;2023-02-18T10:34:29;0.60;;;0.50;;
77123;SDS011;66079;47.646;19.130;2023-02-18T10:52:04;2.03;;;0.40;;
77123;SDS011;66079;47.646;19.130;2023-02-18T10:55:09;1.65;;;0.70;;
77123;SDS011;66079;47.646;19.130;2023-02-18T10:58:25;1.27;;;0.60;;
77123;SDS011;66079;47.646;19.130;2023-02-18T11:01:35;0.52;;;0.40;;
77123;SDS011;66079;47.646;19.130;2023-02-18T11:04:39;2.07;;;0.47;;
77123;SDS011;66079;47.646;19.130;2023-02-18T11:07:46;1.00;;;0.40;;
77123;SDS011;66079;47.646;19.130;2023-02-18T11:10:53;0.73;;;0.60;;
77123;SDS011;66079;47.646;19.130;2023-02-18T11:14:00;0.60;;;0.43;;
77123;SDS011;66079;47.646;19.130;2023-02-18T11:17:06;1.33;;;0.47;;
77123;SDS011;66079;47.646;19.130;2023-02-18T11:23:26;0.90;;;0.50;;
77123;SDS011;66079;47.646;19.130;2023-02-18T11:26:29;0.55;;;0.45;;
77123;SDS011;66079;47.646;19.130;2023-02-18T11:29:34;1.13;;;0.50;;
77123;SDS011;66079;47.646;19.130;2023-02-18T11:32:38;2.47;;;0.60;;
77123;SDS011;66079;47.646;19.130;2023-02-18T11:35:47;0.87;;;0.50;;
77123;SDS011;66079;47.646;19.130;2023-02-18T11:38:55;2.20;;;0.47;;
77123;SDS011;66079;47.646;19.130;2023-02-18T11:45:27;2.25;;;0.57;;
77123;SDS011;66079;47.646;19.130;2023-02-18T11:48:32;1.02;;;0.40;;
77123;SDS011;66079;47.646;19.130;2023-02-18T11:51:34;1.60;;;0.40;;
77123;SDS011;66079;47.646;19.130;2023-02-18T11:54:41;1.20;;;0.40;;
77123;SDS011;66079;47.646;19.130;2023-02-18T11:57:48;1.50;;;0.50;;
77123;SDS011;66079;47.646;19.130;2023-02-18T12:00:54;1.27;;;0.60;;
77123;SDS011;66079;47.646;19.130;2023-02-18T12:04:13;0.70;;;0.70;;
77123;SDS011;66079;47.646;19.130;2023-02-18T12:07:26;1.83;;;0.80;;
77123;SDS011;66079;47.646;19.130;2023-02-18T12:13:51;0.88;;;0.73;;
77123;SDS011;66079;47.646;19.130;2023-02-18T12:20:18;2.03;;;0.85;;
77123;SDS011;66079;47.646;19.130;2023-02-18T12:51:32;0.95;;;0.73;;
77123;SDS011;66079;47.646;19.130;2023-02-18T13:12:53;1.63;;;0.80;;
77123;SDS011;66079;47.646;19.130;2023-02-18T13:16:05;1.97;;;0.80;;
77123;SDS011;66079;47.646;19.130;2023-02-18T13:19:26;0.73;;;0.60;;
77123;SDS011;66079;47.646;19.130;2023-02-18T13:22:33;1.20;;;0.70;;
77123;SDS011;66079;47.646;19.130;2023-02-18T13:25:36;1.20;;;1.10;;
77123;SDS011;66079;47.646;19.130;2023-02-18T13:41:17;0.93;;;0.50;;
77123;SDS011;66079;47.646;19.130;2023-02-18T13:50:52;2.40;;;0.40;;
77123;SDS011;66079;47.646;19.130;2023-02-18T13:54:08;1.17;;;0.50;;
77123;SDS011;66079;47.646;19.130;2023-02-18T13:57:19;0.75;;;0.40;;
77123;SDS011;66079;47.646;19.130;2023-02-18T14:00:35;1.05;;;0.40;;
77123;SDS011;66079;47.646;19.130;2023-02-18T14:13:24;1.23;;;0.38;;
77123;SDS011;66079;47.646;19.130;2023-02-18T14:26:28;0.47;;;0.30;;
77123;SDS011;66079;47.646;19.130;2023-02-18T14:29:33;0.40;;;0.32;;
77123;SDS011;66079;47.646;19.130;2023-02-18T14:32:35;0.35;;;0.30;;
77123;SDS011;66079;47.646;19.130;2023-02-18T14:35:48;1.20;;;0.40;;
77123;SDS011;66079;47.646;19.130;2023-02-18T14:52:44;0.67;;;0.50;;
77123;SDS011;66079;47.646;19.130;2023-02-18T14:55:52;0.77;;;0.50;;
77123;SDS011;66079;47.646;19.130;2023-02-18T14:59:00;0.52;;;0.35;;
77123;SDS011;66079;47.646;19.130;2023-02-18T15:02:23;0.55;;;0.40;;
77123;SDS011;66079;47.646;19.130;2023-02-18T15:05:36;0.98;;;0.30;;
77123;SDS011;66079;47.646;19.130;2023-02-18T15:08:39;2.03;;;0.50;;
77123;SDS011;66079;47.646;19.130;2023-02-18T15:11:50;2.93;;;0.57;;
77123;SDS011;66079;47.646;19.130;2023-02-18T15:15:08;0.70;;;0.50;;
77123;SDS011;66079;47.646;19.130;2023-02-18T15:18:29;1.85;;;0.50;;
77123;SDS011;66079;47.646;19.130;2023-02-18T15:21:38;0.82;;;0.50;;
77123;SDS011;66079;47.646;19.130;2023-02-18T15:24:45;0.50;;;0.40;;
77123;SDS011;66079;47.646;19.130;2023-02-18T15:27:50;0.40;;;0.40;;
77123;SDS011;66079;47.646;19.130;2023-02-18T15:30:59;0.50;;;0.45;;
77123;SDS011;66079;47.646;19.130;2023-02-18T15:37:25;0.35;;;0.30;;
77123;SDS011;66079;47.646;19.130;2023-02-18T15:40:29;0.80;;;0.40;;
77123;SDS011;66079;47.646;19.130;2023-02-18T15:43:33;1.90;;;0.40;;
77123;SDS011;66079;47.646;19.130;2023-02-18T15:46:37;0.93;;;0.57;;
77123;SDS011;66079;47.646;19.130;2023-02-18T15:49:43;1.35;;;0.40;;
77123;SDS011;66079;47.646;19.130;2023-02-18T15:52:49;0.93;;;0.50;;
77123;SDS011;66079;47.646;19.130;2023-02-18T15:55:55;0.70;;;0.40;;
77123;SDS011;66079;47.646;19.130;2023-02-18T16:02:48;0.77;;;0.77;;
77123;SDS011;66079;47.646;19.130;2023-02-18T16:06:10;0.85;;;0.57;;
77123;SDS011;66079;47.646;19.130;2023-02-18T16:12:29;0.80;;;0.60;;
77123;SDS011;66079;47.646;19.130;2023-02-18T16:15:37;0.63;;;0.60;;
77123;SDS011;66079;47.646;19.130;2023-02-18T16:18:43;16.60;;;8.15;;
77123;SDS011;66079;47.646;19.130;2023-02-18T16:21:46;20.63;;;10.65;;
77123;SDS011;66079;47.646;19.130;2023-02-18T16:24:48;26.52;;;13.32;;
77123;SDS011;66079;47.646;19.130;2023-02-18T16:30:59;27.30;;;14.10;;
77123;SDS011;66079;47.646;19.130;2023-02-18T16:34:02;28.42;;;15.57;;
77123;SDS011;66079;47.646;19.130;2023-02-18T16:37:05;30.45;;;15.57;;
77123;SDS011;66079;47.646;19.130;2023-02-18T16:40:35;30.90;;;16.30;;
77123;SDS011;66079;47.646;19.130;2023-02-18T16:43:42;32.33;;;16.40;;
77123;SDS011;66079;47.646;19.130;2023-02-18T16:46:45;38.17;;;18.00;;
77123;SDS011;66079;47.646;19.130;2023-02-18T16:49:48;34.03;;;17.95;;
77123;SDS011;66079;47.646;19.130;2023-02-18T16:52:53;34.75;;;17.17;;
77123;SDS011;66079;47.646;19.130;2023-02-18T16:55:55;34.70;;;17.70;;
77123;SDS011;66079;47.646;19.130;2023-02-18T16:58:59;34.17;;;16.07;;
77123;SDS011;66079;47.646;19.130;2023-02-18T17:02:02;32.70;;;15.47;;
77123;SDS011;66079;47.646;19.130;2023-02-18T17:05:06;33.78;;;16.20;;
77123;SDS011;66079;47.646;19.130;2023-02-18T17:08:26;33.83;;;17.10;;
77123;SDS011;66079;47.646;19.130;2023-02-18T17:11:30;33.15;;;17.17;;
77123;SDS011;66079;47.646;19.130;2023-02-18T17:14:35;33.03;;;17.33;;
77123;SDS011;66079;47.646;19.130;2023-02-18T17:17:37;36.97;;;17.67;;
77123;SDS011;66079;47.646;19.130;2023-02-18T17:20:40;33.83;;;17.02;;
77123;SDS011;66079;47.646;19.130;2023-02-18T17:23:43;38.25;;;18.58;;
77123;SDS011;66079;47.646;19.130;2023-02-18T17:26:49;35.22;;;18.73;;
77123;SDS011;66079;47.646;19.130;2023-02-18T17:29:52;36.63;;;17.33;;
77123;SDS011;66079;47.646;19.130;2023-02-18T17:32:57;37.50;;;18.63;;
77123;SDS011;66079;47.646;19.130;2023-02-18T17:36:04;40.63;;;19.27;;
77123;SDS011;66079;47.646;19.130;2023-02-18T17:39:10;37.80;;;19.00;;
77123;SDS011;66079;47.646;19.130;2023-02-18T17:42:15;36.35;;;18.45;;
77123;SDS011;66079;47.646;19.130;2023-02-18T17:45:25;35.30;;;18.47;;
77123;SDS011;66079;47.646;19.130;2023-02-18T17:48:30;37.73;;;17.80;;
77123;SDS011;66079;47.646;19.130;2023-02-18T17:51:33;36.40;;;17.58;;
77123;SDS011;66079;47.646;19.130;2023-02-18T17:54:38;36.40;;;17.90;;
77123;SDS011;66079;47.646;19.130;2023-02-18T17:57:42;37.47;;;19.35;;
77123;SDS011;66079;47.646;19.130;2023-02-18T18:04:13;37.77;;;18.83;;
77123;SDS011;66079;47.646;19.130;2023-02-18T18:07:18;38.50;;;18.60;;
77123;SDS011;66079;47.646;19.130;2023-02-18T18:10:22;37.78;;;18.75;;
77123;SDS011;66079;47.646;19.130;2023-02-18T18:13:32;40.97;;;20.20;;
77123;SDS011;66079;47.646;19.130;2023-02-18T18:16:35;39.57;;;19.73;;
77123;SDS011;66079;47.646;19.130;2023-02-18T18:19:40;42.23;;;20.27;;
77123;SDS011;66079;47.646;19.130;2023-02-18T18:22:43;43.53;;;21.45;;
77123;SDS011;66079;47.646;19.130;2023-02-18T18:25:47;47.33;;;22.35;;
77123;SDS011;66079;47.646;19.130;2023-02-18T18:28:53;51.00;;;24.08;;
77123;SDS011;66079;47.646;19.130;2023-02-18T18:31:56;52.50;;;25.43;;
77123;SDS011;66079;47.646;19.130;2023-02-18T18:34:59;51.30;;;24.23;;
77123;SDS011;66079;47.646;19.130;2023-02-18T18:38:04;50.70;;;22.83;;
77123;SDS011;66079;47.646;19.130;2023-02-18T18:41:17;36.90;;;19.30;;
77123;SDS011;66079;47.646;19.130;2023-02-18T18:44:22;32.92;;;16.77;;
77123;SDS011;66079;47.646;19.130;2023-02-18T18:47:27;36.67;;;17.70;;
77123;SDS011;66079;47.646;19.130;2023-02-18T18:50:33;32.60;;;16.57;;
77123;SDS011;66079;47.646;19.130;2023-02-18T18:53:39;29.30;;;15.93;;
77123;SDS011;66079;47.646;19.130;2023-02-18T18:56:41;29.48;;;15.25;;
77123;SDS011;66079;47.646;19.130;2023-02-18T18:59:45;27.08;;;13.70;;
77123;SDS011;66079;47.646;19.130;2023-02-18T19:02:49;27.90;;;14.87;;
77123;SDS011;66079;47.646;19.130;2023-02-18T19:05:52;28.87;;;14.53;;
77123;SDS011;66079;47.646;19.130;2023-02-18T19:08:55;29.23;;;14.05;;
77123;SDS011;66079;47.646;19.130;2023-02-18T19:11:59;30.05;;;14.80;;
77123;SDS011;66079;47.646;19.130;2023-02-18T19:15:02;27.08;;;13.88;;
77123;SDS011;66079;47.646;19.130;2023-02-18T19:18:05;27.07;;;14.10;;
77123;SDS011;66079;47.646;19.130;2023-02-18T19:21:09;25.80;;;13.47;;
77123;SDS011;66079;47.646;19.130;2023-02-18T19:24:14;26.10;;;12.55;;
77123;SDS011;66079;47.646;19.130;2023-02-18T19:27:16;23.73;;;12.20;;
77123;SDS011;66079;47.646;19.130;2023-02-18T19:30:21;22.65;;;11.70;;
77123;SDS011;66079;47.646;19.130;2023-02-18T19:33:28;21.10;;;11.33;;
77123;SDS011;66079;47.646;19.130;2023-02-18T19:36:31;20.77;;;11.57;;
77123;SDS011;66079;47.646;19.130;2023-02-18T19:39:34;24.27;;;12.70;;
77123;SDS011;66079;47.646;19.130;2023-02-18T19:42:37;28.42;;;12.55;;
77123;SDS011;66079;47.646;19.130;2023-02-18T19:45:42;22.48;;;12.02;;
77123;SDS011;66079;47.646;19.130;2023-02-18T19:48:47;24.00;;;12.27;;
77123;SDS011;66079;47.646;19.130;2023-02-18T19:51:52;22.97;;;11.83;;
77123;SDS011;66079;47.646;19.130;2023-02-18T19:54:55;21.25;;;11.73;;
77123;SDS011;66079;47.646;19.130;2023-02-18T19:57:59;25.10;;;11.70;;
77123;SDS011;66079;47.646;19.130;2023-02-18T20:01:02;20.33;;;10.30;;
77123;SDS011;66079;47.646;19.130;2023-02-18T20:04:05;20.47;;;10.60;;
77123;SDS011;66079;47.646;19.130;2023-02-18T20:07:10;24.20;;;11.57;;
77123;SDS011;66079;47.646;19.130;2023-02-18T20:10:14;22.42;;;11.18;;
77123;SDS011;66079;47.646;19.130;2023-02-18T20:13:19;21.63;;;11.32;;
77123;SDS011;66079;47.646;19.130;2023-02-18T20:16:22;23.33;;;11.05;;
77123;SDS011;66079;47.646;19.130;2023-02-18T20:19:26;21.20;;;10.33;;
77123;SDS011;66079;47.646;19.130;2023-02-18T20:22:33;19.50;;;10.43;;
77123;SDS011;66079;47.646;19.130;2023-02-18T20:25:37;19.85;;;9.30;;
77123;SDS011;66079;47.646;19.130;2023-02-18T20:28:41;19.52;;;9.18;;
77123;SDS011;66079;47.646;19.130;2023-02-18T20:31:47;18.15;;;10.30;;
77123;SDS011;66079;47.646;19.130;2023-02-18T20:34:51;19.00;;;9.53;;
77123;SDS011;66079;47.646;19.130;2023-02-18T20:37:53;18.63;;;9.60;;
77123;SDS011;66079;47.646;19.130;2023-02-18T20:41:04;18.38;;;9.57;;
77123;SDS011;66079;47.646;19.130;2023-02-18T20:44:13;19.13;;;9.15;;
77123;SDS011;66079;47.646;19.130;2023-02-18T20:47:17;18.10;;;9.30;;
77123;SDS011;66079;47.646;19.130;2023-02-18T20:50:20;21.30;;;9.53;;
77123;SDS011;66079;47.646;19.130;2023-02-18T20:53:22;20.10;;;10.30;;
77123;SDS011;66079;47.646;19.130;2023-02-18T20:56:25;19.15;;;10.40;;
77123;SDS011;66079;47.646;19.130;2023-02-18T20:59:29;19.40;;;10.23;;
77123;SDS011;66079;47.646;19.130;2023-02-18T21:02:34;18.60;;;9.57;;
77123;SDS011;66079;47.646;19.130;2023-02-18T21:05:37;16.27;;;8.43;;
77123;SDS011;66079;47.646;19.130;2023-02-18T21:08:41;16.60;;;8.10;;
77123;SDS011;66079;47.646;19.130;2023-02-18T21:11:46;16.33;;;8.68;;
77123;SDS011;66079;47.646;19.130;2023-02-18T21:14:50;16.23;;;8.00;;
77123;SDS011;66079;47.646;19.130;2023-02-18T21:17:53;13.25;;;6.65;;